<?xml version="1.0" encoding="UTF-8" standalone="no" ?>
<gpx xmlns="http://www.topografix.com/GPX/1/1" xmlns:xsi="http://www.w3.org/2001/XMLSchema-instance" xsi:schemaLocation="http://www.topografix.com/GPX/1/1 http://www.topografix.com/GPX/1/1/gpx.xsd" version="1.1" creator="VisuGPX - https://www.visugpx.com">
  <metadata>
    <name>boucle st martin des combes 13km</name>
  </metadata>
  <trk>
    <name><![CDATA[randogps24-554]]></name>
    <trkseg>
      <trkpt lat="44.95701" lon="0.61519">
        <ele>99.63</ele>
        <time>2020-01-11T13:28:19Z</time>
      </trkpt>
      <trkpt lat="44.95701" lon="0.61519">
        <ele>99.63</ele>
        <time>2020-01-11T13:28:20Z</time>
      </trkpt>
      <trkpt lat="44.95701" lon="0.61518">
        <ele>99.63</ele>
        <time>2020-01-11T13:28:40Z</time>
      </trkpt>
      <trkpt lat="44.95698" lon="0.61521">
        <ele>99.63</ele>
        <time>2020-01-11T13:28:55Z</time>
      </trkpt>
      <trkpt lat="44.957" lon="0.61519">
        <ele>99.63</ele>
        <time>2020-01-11T13:29:21Z</time>
      </trkpt>
      <trkpt lat="44.95702" lon="0.61521">
        <ele>99.63</ele>
        <time>2020-01-11T13:29:36Z</time>
      </trkpt>
      <trkpt lat="44.95699" lon="0.61523">
        <ele>99.15</ele>
        <time>2020-01-11T13:29:54Z</time>
      </trkpt>
      <trkpt lat="44.95699" lon="0.6152">
        <ele>99.15</ele>
        <time>2020-01-11T13:30:15Z</time>
      </trkpt>
      <trkpt lat="44.95701" lon="0.61531">
        <ele>99.63</ele>
        <time>2020-01-11T13:30:25Z</time>
      </trkpt>
      <trkpt lat="44.957" lon="0.61549">
        <ele>100.11</ele>
        <time>2020-01-11T13:30:37Z</time>
      </trkpt>
      <trkpt lat="44.95698" lon="0.61557">
        <ele>100.11</ele>
        <time>2020-01-11T13:30:41Z</time>
      </trkpt>
      <trkpt lat="44.95694" lon="0.61561">
        <ele>100.11</ele>
        <time>2020-01-11T13:30:44Z</time>
      </trkpt>
      <trkpt lat="44.95661" lon="0.61571">
        <ele>100.11</ele>
        <time>2020-01-11T13:31:07Z</time>
      </trkpt>
      <trkpt lat="44.9566" lon="0.61596">
        <ele>101.08</ele>
        <time>2020-01-11T13:31:27Z</time>
      </trkpt>
      <trkpt lat="44.95659" lon="0.61646">
        <ele>103.48</ele>
        <time>2020-01-11T13:31:54Z</time>
      </trkpt>
      <trkpt lat="44.95629" lon="0.61668">
        <ele>104.92</ele>
        <time>2020-01-11T13:32:14Z</time>
      </trkpt>
      <trkpt lat="44.95594" lon="0.61679">
        <ele>105.88</ele>
        <time>2020-01-11T13:32:41Z</time>
      </trkpt>
      <trkpt lat="44.9556" lon="0.61701">
        <ele>105.88</ele>
        <time>2020-01-11T13:33:08Z</time>
      </trkpt>
      <trkpt lat="44.95523" lon="0.61721">
        <ele>105.88</ele>
        <time>2020-01-11T13:33:34Z</time>
      </trkpt>
      <trkpt lat="44.95492" lon="0.61739">
        <ele>106.36</ele>
        <time>2020-01-11T13:34:01Z</time>
      </trkpt>
      <trkpt lat="44.95454" lon="0.61761">
        <ele>107.32</ele>
        <time>2020-01-11T13:34:26Z</time>
      </trkpt>
      <trkpt lat="44.95425" lon="0.61784">
        <ele>107.32</ele>
        <time>2020-01-11T13:34:51Z</time>
      </trkpt>
      <trkpt lat="44.9541" lon="0.61798">
        <ele>105.88</ele>
        <time>2020-01-11T13:35:02Z</time>
      </trkpt>
      <trkpt lat="44.95383" lon="0.61833">
        <ele>105.88</ele>
        <time>2020-01-11T13:35:31Z</time>
      </trkpt>
      <trkpt lat="44.95345" lon="0.61863">
        <ele>105.88</ele>
        <time>2020-01-11T13:35:58Z</time>
      </trkpt>
      <trkpt lat="44.95319" lon="0.61897">
        <ele>104.92</ele>
        <time>2020-01-11T13:36:23Z</time>
      </trkpt>
      <trkpt lat="44.95294" lon="0.61925">
        <ele>103</ele>
        <time>2020-01-11T13:36:45Z</time>
      </trkpt>
      <trkpt lat="44.95269" lon="0.61959">
        <ele>101.08</ele>
        <time>2020-01-11T13:37:11Z</time>
      </trkpt>
      <trkpt lat="44.95238" lon="0.61987">
        <ele>98.67</ele>
        <time>2020-01-11T13:37:36Z</time>
      </trkpt>
      <trkpt lat="44.95211" lon="0.62008">
        <ele>97.71</ele>
        <time>2020-01-11T13:37:59Z</time>
      </trkpt>
      <trkpt lat="44.95177" lon="0.62028">
        <ele>97.71</ele>
        <time>2020-01-11T13:38:24Z</time>
      </trkpt>
      <trkpt lat="44.95186" lon="0.62029">
        <ele>99.15</ele>
        <time>2020-01-11T13:38:39Z</time>
      </trkpt>
      <trkpt lat="44.95215" lon="0.62056">
        <ele>102.04</ele>
        <time>2020-01-11T13:39:03Z</time>
      </trkpt>
      <trkpt lat="44.9523" lon="0.62091">
        <ele>105.4</ele>
        <time>2020-01-11T13:39:24Z</time>
      </trkpt>
      <trkpt lat="44.95256" lon="0.62118">
        <ele>107.81</ele>
        <time>2020-01-11T13:39:46Z</time>
      </trkpt>
      <trkpt lat="44.9529" lon="0.62139">
        <ele>109.25</ele>
        <time>2020-01-11T13:40:11Z</time>
      </trkpt>
      <trkpt lat="44.95327" lon="0.62152">
        <ele>111.65</ele>
        <time>2020-01-11T13:40:37Z</time>
      </trkpt>
      <trkpt lat="44.95362" lon="0.62168">
        <ele>114.05</ele>
        <time>2020-01-11T13:41:01Z</time>
      </trkpt>
      <trkpt lat="44.95394" lon="0.62194">
        <ele>116.94</ele>
        <time>2020-01-11T13:41:28Z</time>
      </trkpt>
      <trkpt lat="44.95424" lon="0.62221">
        <ele>119.34</ele>
        <time>2020-01-11T13:41:55Z</time>
      </trkpt>
      <trkpt lat="44.95448" lon="0.62241">
        <ele>121.74</ele>
        <time>2020-01-11T13:42:20Z</time>
      </trkpt>
      <trkpt lat="44.95468" lon="0.62265">
        <ele>123.19</ele>
        <time>2020-01-11T13:42:43Z</time>
      </trkpt>
      <trkpt lat="44.95505" lon="0.62285">
        <ele>126.07</ele>
        <time>2020-01-11T13:43:07Z</time>
      </trkpt>
      <trkpt lat="44.95518" lon="0.62293">
        <ele>127.03</ele>
        <time>2020-01-11T13:43:31Z</time>
      </trkpt>
      <trkpt lat="44.95541" lon="0.62312">
        <ele>128.95</ele>
        <time>2020-01-11T13:43:57Z</time>
      </trkpt>
      <trkpt lat="44.95562" lon="0.62331">
        <ele>131.36</ele>
        <time>2020-01-11T13:44:21Z</time>
      </trkpt>
      <trkpt lat="44.95585" lon="0.62341">
        <ele>134.72</ele>
        <time>2020-01-11T13:44:41Z</time>
      </trkpt>
      <trkpt lat="44.95599" lon="0.62352">
        <ele>138.09</ele>
        <time>2020-01-11T13:44:59Z</time>
      </trkpt>
      <trkpt lat="44.95617" lon="0.62351">
        <ele>141.45</ele>
        <time>2020-01-11T13:45:20Z</time>
      </trkpt>
      <trkpt lat="44.95637" lon="0.6235">
        <ele>142.89</ele>
        <time>2020-01-11T13:45:42Z</time>
      </trkpt>
      <trkpt lat="44.95648" lon="0.62357">
        <ele>144.34</ele>
        <time>2020-01-11T13:46:00Z</time>
      </trkpt>
      <trkpt lat="44.95619" lon="0.62379">
        <ele>145.3</ele>
        <time>2020-01-11T13:46:22Z</time>
      </trkpt>
      <trkpt lat="44.95604" lon="0.62406">
        <ele>146.26</ele>
        <time>2020-01-11T13:46:45Z</time>
      </trkpt>
      <trkpt lat="44.95582" lon="0.62432">
        <ele>147.7</ele>
        <time>2020-01-11T13:47:10Z</time>
      </trkpt>
      <trkpt lat="44.95542" lon="0.62446">
        <ele>149.62</ele>
        <time>2020-01-11T13:47:35Z</time>
      </trkpt>
      <trkpt lat="44.95517" lon="0.62462">
        <ele>152.03</ele>
        <time>2020-01-11T13:47:58Z</time>
      </trkpt>
      <trkpt lat="44.95517" lon="0.62485">
        <ele>154.43</ele>
        <time>2020-01-11T13:48:19Z</time>
      </trkpt>
      <trkpt lat="44.95524" lon="0.6252">
        <ele>156.83</ele>
        <time>2020-01-11T13:48:41Z</time>
      </trkpt>
      <trkpt lat="44.95554" lon="0.62545">
        <ele>159.72</ele>
        <time>2020-01-11T13:49:06Z</time>
      </trkpt>
      <trkpt lat="44.95572" lon="0.62575">
        <ele>161.16</ele>
        <time>2020-01-11T13:49:29Z</time>
      </trkpt>
      <trkpt lat="44.95586" lon="0.6264">
        <ele>161.16</ele>
        <time>2020-01-11T13:49:55Z</time>
      </trkpt>
      <trkpt lat="44.95584" lon="0.62673">
        <ele>157.79</ele>
        <time>2020-01-11T13:50:11Z</time>
      </trkpt>
      <trkpt lat="44.95579" lon="0.62713">
        <ele>154.91</ele>
        <time>2020-01-11T13:50:30Z</time>
      </trkpt>
      <trkpt lat="44.95565" lon="0.62767">
        <ele>152.99</ele>
        <time>2020-01-11T13:50:55Z</time>
      </trkpt>
      <trkpt lat="44.95559" lon="0.62815">
        <ele>152.03</ele>
        <time>2020-01-11T13:51:18Z</time>
      </trkpt>
      <trkpt lat="44.9555" lon="0.62873">
        <ele>150.58</ele>
        <time>2020-01-11T13:51:42Z</time>
      </trkpt>
      <trkpt lat="44.95534" lon="0.62926">
        <ele>149.62</ele>
        <time>2020-01-11T13:52:06Z</time>
      </trkpt>
      <trkpt lat="44.95537" lon="0.62959">
        <ele>147.22</ele>
        <time>2020-01-11T13:52:26Z</time>
      </trkpt>
      <trkpt lat="44.95547" lon="0.62975">
        <ele>146.26</ele>
        <time>2020-01-11T13:52:35Z</time>
      </trkpt>
      <trkpt lat="44.95571" lon="0.63012">
        <ele>142.41</ele>
        <time>2020-01-11T13:52:57Z</time>
      </trkpt>
      <trkpt lat="44.95592" lon="0.63049">
        <ele>139.53</ele>
        <time>2020-01-11T13:53:18Z</time>
      </trkpt>
      <trkpt lat="44.95618" lon="0.63089">
        <ele>136.16</ele>
        <time>2020-01-11T13:53:45Z</time>
      </trkpt>
      <trkpt lat="44.95626" lon="0.63097">
        <ele>135.68</ele>
        <time>2020-01-11T13:54:04Z</time>
      </trkpt>
      <trkpt lat="44.9564" lon="0.63107">
        <ele>134.72</ele>
        <time>2020-01-11T13:54:18Z</time>
      </trkpt>
      <trkpt lat="44.95649" lon="0.63114">
        <ele>134.24</ele>
        <time>2020-01-11T13:54:28Z</time>
      </trkpt>
      <trkpt lat="44.95661" lon="0.63129">
        <ele>132.8</ele>
        <time>2020-01-11T13:54:38Z</time>
      </trkpt>
      <trkpt lat="44.9566" lon="0.63139">
        <ele>132.8</ele>
        <time>2020-01-11T13:54:43Z</time>
      </trkpt>
      <trkpt lat="44.95659" lon="0.63164">
        <ele>130.88</ele>
        <time>2020-01-11T13:54:57Z</time>
      </trkpt>
      <trkpt lat="44.95666" lon="0.63174">
        <ele>130.88</ele>
        <time>2020-01-11T13:55:11Z</time>
      </trkpt>
      <trkpt lat="44.95667" lon="0.63175">
        <ele>130.4</ele>
        <time>2020-01-11T13:55:12Z</time>
      </trkpt>
      <trkpt lat="44.95682" lon="0.63201">
        <ele>128.47</ele>
        <time>2020-01-11T13:55:26Z</time>
      </trkpt>
      <trkpt lat="44.95683" lon="0.63204">
        <ele>128.47</ele>
        <time>2020-01-11T13:55:27Z</time>
      </trkpt>
      <trkpt lat="44.95692" lon="0.63231">
        <ele>125.59</ele>
        <time>2020-01-11T13:55:40Z</time>
      </trkpt>
      <trkpt lat="44.95696" lon="0.63243">
        <ele>125.59</ele>
        <time>2020-01-11T13:55:46Z</time>
      </trkpt>
      <trkpt lat="44.95704" lon="0.63267">
        <ele>123.67</ele>
        <time>2020-01-11T13:55:59Z</time>
      </trkpt>
      <trkpt lat="44.95713" lon="0.63288">
        <ele>121.74</ele>
        <time>2020-01-11T13:56:10Z</time>
      </trkpt>
      <trkpt lat="44.95729" lon="0.63316">
        <ele>119.34</ele>
        <time>2020-01-11T13:56:23Z</time>
      </trkpt>
      <trkpt lat="44.95741" lon="0.63337">
        <ele>116.94</ele>
        <time>2020-01-11T13:56:34Z</time>
      </trkpt>
      <trkpt lat="44.95751" lon="0.63353">
        <ele>114.53</ele>
        <time>2020-01-11T13:56:45Z</time>
      </trkpt>
      <trkpt lat="44.95767" lon="0.63369">
        <ele>111.17</ele>
        <time>2020-01-11T13:57:00Z</time>
      </trkpt>
      <trkpt lat="44.95784" lon="0.63383">
        <ele>109.25</ele>
        <time>2020-01-11T13:57:11Z</time>
      </trkpt>
      <trkpt lat="44.95801" lon="0.63402">
        <ele>106.84</ele>
        <time>2020-01-11T13:57:25Z</time>
      </trkpt>
      <trkpt lat="44.95805" lon="0.63408">
        <ele>106.36</ele>
        <time>2020-01-11T13:57:29Z</time>
      </trkpt>
      <trkpt lat="44.95808" lon="0.6341">
        <ele>106.36</ele>
        <time>2020-01-11T13:57:31Z</time>
      </trkpt>
      <trkpt lat="44.95809" lon="0.63412">
        <ele>105.88</ele>
        <time>2020-01-11T13:57:32Z</time>
      </trkpt>
      <trkpt lat="44.9581" lon="0.63413">
        <ele>106.36</ele>
        <time>2020-01-11T13:57:33Z</time>
      </trkpt>
      <trkpt lat="44.95826" lon="0.6343">
        <ele>104.92</ele>
        <time>2020-01-11T13:57:47Z</time>
      </trkpt>
      <trkpt lat="44.95831" lon="0.63436">
        <ele>104.44</ele>
        <time>2020-01-11T13:57:52Z</time>
      </trkpt>
      <trkpt lat="44.95833" lon="0.63439">
        <ele>104.44</ele>
        <time>2020-01-11T13:57:55Z</time>
      </trkpt>
      <trkpt lat="44.9584" lon="0.63449">
        <ele>104.44</ele>
        <time>2020-01-11T13:58:05Z</time>
      </trkpt>
      <trkpt lat="44.95854" lon="0.6347">
        <ele>105.88</ele>
        <time>2020-01-11T13:58:19Z</time>
      </trkpt>
      <trkpt lat="44.95859" lon="0.63494">
        <ele>106.36</ele>
        <time>2020-01-11T13:58:29Z</time>
      </trkpt>
      <trkpt lat="44.95858" lon="0.63496">
        <ele>106.36</ele>
        <time>2020-01-11T13:58:30Z</time>
      </trkpt>
      <trkpt lat="44.95836" lon="0.63524">
        <ele>106.36</ele>
        <time>2020-01-11T13:58:45Z</time>
      </trkpt>
      <trkpt lat="44.95817" lon="0.6354">
        <ele>104.92</ele>
        <time>2020-01-11T13:58:58Z</time>
      </trkpt>
      <trkpt lat="44.95801" lon="0.63553">
        <ele>104.44</ele>
        <time>2020-01-11T13:59:11Z</time>
      </trkpt>
      <trkpt lat="44.95781" lon="0.6357">
        <ele>103.96</ele>
        <time>2020-01-11T13:59:26Z</time>
      </trkpt>
      <trkpt lat="44.95761" lon="0.63584">
        <ele>103.48</ele>
        <time>2020-01-11T13:59:41Z</time>
      </trkpt>
      <trkpt lat="44.9574" lon="0.63589">
        <ele>103.48</ele>
        <time>2020-01-11T13:59:55Z</time>
      </trkpt>
      <trkpt lat="44.95725" lon="0.6359">
        <ele>103.48</ele>
        <time>2020-01-11T14:00:05Z</time>
      </trkpt>
      <trkpt lat="44.95707" lon="0.63587">
        <ele>103.48</ele>
        <time>2020-01-11T14:00:19Z</time>
      </trkpt>
      <trkpt lat="44.95704" lon="0.63586">
        <ele>103.48</ele>
        <time>2020-01-11T14:00:20Z</time>
      </trkpt>
      <trkpt lat="44.95688" lon="0.63582">
        <ele>103.48</ele>
        <time>2020-01-11T14:00:29Z</time>
      </trkpt>
      <trkpt lat="44.95687" lon="0.63582">
        <ele>103.48</ele>
        <time>2020-01-11T14:00:30Z</time>
      </trkpt>
      <trkpt lat="44.95685" lon="0.63581">
        <ele>103.48</ele>
        <time>2020-01-11T14:00:31Z</time>
      </trkpt>
      <trkpt lat="44.95666" lon="0.63572">
        <ele>103.48</ele>
        <time>2020-01-11T14:00:43Z</time>
      </trkpt>
      <trkpt lat="44.95652" lon="0.63563">
        <ele>103.96</ele>
        <time>2020-01-11T14:00:55Z</time>
      </trkpt>
      <trkpt lat="44.95649" lon="0.63562">
        <ele>103.96</ele>
        <time>2020-01-11T14:00:57Z</time>
      </trkpt>
      <trkpt lat="44.95646" lon="0.63561">
        <ele>103.96</ele>
        <time>2020-01-11T14:00:58Z</time>
      </trkpt>
      <trkpt lat="44.9562" lon="0.63554">
        <ele>103.96</ele>
        <time>2020-01-11T14:01:11Z</time>
      </trkpt>
      <trkpt lat="44.95603" lon="0.63555">
        <ele>103.96</ele>
        <time>2020-01-11T14:01:22Z</time>
      </trkpt>
      <trkpt lat="44.95588" lon="0.6356">
        <ele>103.96</ele>
        <time>2020-01-11T14:01:33Z</time>
      </trkpt>
      <trkpt lat="44.9557" lon="0.63574">
        <ele>103.96</ele>
        <time>2020-01-11T14:01:46Z</time>
      </trkpt>
      <trkpt lat="44.95555" lon="0.63594">
        <ele>103.96</ele>
        <time>2020-01-11T14:02:00Z</time>
      </trkpt>
      <trkpt lat="44.95541" lon="0.63613">
        <ele>103.48</ele>
        <time>2020-01-11T14:02:13Z</time>
      </trkpt>
      <trkpt lat="44.95525" lon="0.63628">
        <ele>103.48</ele>
        <time>2020-01-11T14:02:24Z</time>
      </trkpt>
      <trkpt lat="44.95512" lon="0.63642">
        <ele>103.96</ele>
        <time>2020-01-11T14:02:36Z</time>
      </trkpt>
      <trkpt lat="44.95494" lon="0.63655">
        <ele>103.48</ele>
        <time>2020-01-11T14:02:49Z</time>
      </trkpt>
      <trkpt lat="44.95477" lon="0.63668">
        <ele>102.04</ele>
        <time>2020-01-11T14:03:03Z</time>
      </trkpt>
      <trkpt lat="44.95456" lon="0.63676">
        <ele>100.6</ele>
        <time>2020-01-11T14:03:17Z</time>
      </trkpt>
      <trkpt lat="44.9543" lon="0.63674">
        <ele>99.63</ele>
        <time>2020-01-11T14:03:31Z</time>
      </trkpt>
      <trkpt lat="44.95411" lon="0.63658">
        <ele>98.67</ele>
        <time>2020-01-11T14:03:42Z</time>
      </trkpt>
      <trkpt lat="44.9541" lon="0.63658">
        <ele>98.67</ele>
        <time>2020-01-11T14:03:43Z</time>
      </trkpt>
      <trkpt lat="44.95409" lon="0.63658">
        <ele>98.67</ele>
        <time>2020-01-11T14:03:44Z</time>
      </trkpt>
      <trkpt lat="44.95408" lon="0.63659">
        <ele>98.19</ele>
        <time>2020-01-11T14:03:45Z</time>
      </trkpt>
      <trkpt lat="44.95408" lon="0.6366">
        <ele>98.19</ele>
        <time>2020-01-11T14:03:46Z</time>
      </trkpt>
      <trkpt lat="44.95396" lon="0.63681">
        <ele>96.27</ele>
        <time>2020-01-11T14:04:01Z</time>
      </trkpt>
      <trkpt lat="44.95378" lon="0.63707">
        <ele>95.31</ele>
        <time>2020-01-11T14:04:19Z</time>
      </trkpt>
      <trkpt lat="44.95356" lon="0.63734">
        <ele>94.83</ele>
        <time>2020-01-11T14:04:37Z</time>
      </trkpt>
      <trkpt lat="44.95338" lon="0.63764">
        <ele>94.83</ele>
        <time>2020-01-11T14:04:55Z</time>
      </trkpt>
      <trkpt lat="44.95327" lon="0.63787">
        <ele>94.83</ele>
        <time>2020-01-11T14:05:08Z</time>
      </trkpt>
      <trkpt lat="44.95323" lon="0.63804">
        <ele>96.27</ele>
        <time>2020-01-11T14:05:18Z</time>
      </trkpt>
      <trkpt lat="44.95319" lon="0.6383">
        <ele>98.67</ele>
        <time>2020-01-11T14:05:34Z</time>
      </trkpt>
      <trkpt lat="44.95317" lon="0.63849">
        <ele>101.56</ele>
        <time>2020-01-11T14:05:49Z</time>
      </trkpt>
      <trkpt lat="44.95317" lon="0.63862">
        <ele>103</ele>
        <time>2020-01-11T14:06:01Z</time>
      </trkpt>
      <trkpt lat="44.95316" lon="0.63863">
        <ele>103</ele>
        <time>2020-01-11T14:06:18Z</time>
      </trkpt>
      <trkpt lat="44.95316" lon="0.63863">
        <ele>103</ele>
        <time>2020-01-11T14:06:30Z</time>
      </trkpt>
      <trkpt lat="44.95316" lon="0.63864">
        <ele>103</ele>
        <time>2020-01-11T14:06:55Z</time>
      </trkpt>
      <trkpt lat="44.95315" lon="0.63866">
        <ele>103</ele>
        <time>2020-01-11T14:06:57Z</time>
      </trkpt>
      <trkpt lat="44.95315" lon="0.63868">
        <ele>103</ele>
        <time>2020-01-11T14:06:58Z</time>
      </trkpt>
      <trkpt lat="44.95315" lon="0.63872">
        <ele>103</ele>
        <time>2020-01-11T14:07:02Z</time>
      </trkpt>
      <trkpt lat="44.95312" lon="0.63877">
        <ele>103.48</ele>
        <time>2020-01-11T14:07:08Z</time>
      </trkpt>
      <trkpt lat="44.95311" lon="0.63878">
        <ele>103.96</ele>
        <time>2020-01-11T14:07:09Z</time>
      </trkpt>
      <trkpt lat="44.95297" lon="0.63879">
        <ele>105.4</ele>
        <time>2020-01-11T14:07:22Z</time>
      </trkpt>
      <trkpt lat="44.9528" lon="0.6388">
        <ele>107.32</ele>
        <time>2020-01-11T14:07:35Z</time>
      </trkpt>
      <trkpt lat="44.9526" lon="0.63878">
        <ele>109.25</ele>
        <time>2020-01-11T14:07:50Z</time>
      </trkpt>
      <trkpt lat="44.95258" lon="0.63878">
        <ele>109.73</ele>
        <time>2020-01-11T14:07:52Z</time>
      </trkpt>
      <trkpt lat="44.95255" lon="0.63877">
        <ele>110.21</ele>
        <time>2020-01-11T14:07:54Z</time>
      </trkpt>
      <trkpt lat="44.95253" lon="0.63877">
        <ele>110.21</ele>
        <time>2020-01-11T14:07:55Z</time>
      </trkpt>
      <trkpt lat="44.95234" lon="0.63876">
        <ele>112.61</ele>
        <time>2020-01-11T14:08:10Z</time>
      </trkpt>
      <trkpt lat="44.95225" lon="0.63874">
        <ele>113.57</ele>
        <time>2020-01-11T14:08:19Z</time>
      </trkpt>
      <trkpt lat="44.95218" lon="0.63875">
        <ele>115.01</ele>
        <time>2020-01-11T14:08:25Z</time>
      </trkpt>
      <trkpt lat="44.95207" lon="0.6388">
        <ele>116.94</ele>
        <time>2020-01-11T14:08:36Z</time>
      </trkpt>
      <trkpt lat="44.95189" lon="0.63881">
        <ele>119.34</ele>
        <time>2020-01-11T14:08:51Z</time>
      </trkpt>
      <trkpt lat="44.95171" lon="0.63877">
        <ele>121.26</ele>
        <time>2020-01-11T14:09:04Z</time>
      </trkpt>
      <trkpt lat="44.95162" lon="0.63873">
        <ele>120.78</ele>
        <time>2020-01-11T14:09:10Z</time>
      </trkpt>
      <trkpt lat="44.95161" lon="0.63872">
        <ele>120.78</ele>
        <time>2020-01-11T14:09:11Z</time>
      </trkpt>
      <trkpt lat="44.95151" lon="0.63871">
        <ele>121.74</ele>
        <time>2020-01-11T14:09:24Z</time>
      </trkpt>
      <trkpt lat="44.9515" lon="0.63873">
        <ele>121.74</ele>
        <time>2020-01-11T14:09:30Z</time>
      </trkpt>
      <trkpt lat="44.9515" lon="0.63874">
        <ele>122.22</ele>
        <time>2020-01-11T14:09:31Z</time>
      </trkpt>
      <trkpt lat="44.9515" lon="0.63876">
        <ele>122.22</ele>
        <time>2020-01-11T14:09:32Z</time>
      </trkpt>
      <trkpt lat="44.9515" lon="0.63877">
        <ele>122.22</ele>
        <time>2020-01-11T14:09:33Z</time>
      </trkpt>
      <trkpt lat="44.9515" lon="0.63878">
        <ele>123.19</ele>
        <time>2020-01-11T14:09:34Z</time>
      </trkpt>
      <trkpt lat="44.9515" lon="0.6388">
        <ele>123.19</ele>
        <time>2020-01-11T14:09:35Z</time>
      </trkpt>
      <trkpt lat="44.95154" lon="0.63901">
        <ele>125.59</ele>
        <time>2020-01-11T14:09:49Z</time>
      </trkpt>
      <trkpt lat="44.95156" lon="0.63906">
        <ele>126.55</ele>
        <time>2020-01-11T14:09:52Z</time>
      </trkpt>
      <trkpt lat="44.95156" lon="0.63907">
        <ele>126.55</ele>
        <time>2020-01-11T14:09:53Z</time>
      </trkpt>
      <trkpt lat="44.9516" lon="0.6393">
        <ele>128.95</ele>
        <time>2020-01-11T14:10:07Z</time>
      </trkpt>
      <trkpt lat="44.95178" lon="0.63947">
        <ele>130.4</ele>
        <time>2020-01-11T14:10:21Z</time>
      </trkpt>
      <trkpt lat="44.95182" lon="0.63955">
        <ele>130.88</ele>
        <time>2020-01-11T14:10:25Z</time>
      </trkpt>
      <trkpt lat="44.95182" lon="0.63962">
        <ele>130.88</ele>
        <time>2020-01-11T14:10:29Z</time>
      </trkpt>
      <trkpt lat="44.95182" lon="0.63964">
        <ele>130.88</ele>
        <time>2020-01-11T14:10:30Z</time>
      </trkpt>
      <trkpt lat="44.95186" lon="0.63981">
        <ele>130.88</ele>
        <time>2020-01-11T14:10:40Z</time>
      </trkpt>
      <trkpt lat="44.95187" lon="0.63982">
        <ele>130.88</ele>
        <time>2020-01-11T14:10:41Z</time>
      </trkpt>
      <trkpt lat="44.95187" lon="0.63984">
        <ele>130.88</ele>
        <time>2020-01-11T14:10:42Z</time>
      </trkpt>
      <trkpt lat="44.95188" lon="0.63985">
        <ele>130.88</ele>
        <time>2020-01-11T14:10:43Z</time>
      </trkpt>
      <trkpt lat="44.95189" lon="0.63987">
        <ele>130.88</ele>
        <time>2020-01-11T14:10:44Z</time>
      </trkpt>
      <trkpt lat="44.9519" lon="0.63989">
        <ele>130.88</ele>
        <time>2020-01-11T14:10:45Z</time>
      </trkpt>
      <trkpt lat="44.95191" lon="0.6399">
        <ele>130.88</ele>
        <time>2020-01-11T14:10:46Z</time>
      </trkpt>
      <trkpt lat="44.95194" lon="0.63994">
        <ele>130.88</ele>
        <time>2020-01-11T14:10:51Z</time>
      </trkpt>
      <trkpt lat="44.95195" lon="0.63996">
        <ele>130.88</ele>
        <time>2020-01-11T14:10:52Z</time>
      </trkpt>
      <trkpt lat="44.95195" lon="0.63997">
        <ele>130.88</ele>
        <time>2020-01-11T14:10:53Z</time>
      </trkpt>
      <trkpt lat="44.95204" lon="0.64034">
        <ele>129.92</ele>
        <time>2020-01-11T14:11:12Z</time>
      </trkpt>
      <trkpt lat="44.95217" lon="0.64056">
        <ele>129.43</ele>
        <time>2020-01-11T14:11:26Z</time>
      </trkpt>
      <trkpt lat="44.95228" lon="0.6407">
        <ele>130.88</ele>
        <time>2020-01-11T14:11:39Z</time>
      </trkpt>
      <trkpt lat="44.95243" lon="0.64079">
        <ele>133.28</ele>
        <time>2020-01-11T14:11:55Z</time>
      </trkpt>
      <trkpt lat="44.95261" lon="0.64072">
        <ele>133.28</ele>
        <time>2020-01-11T14:12:10Z</time>
      </trkpt>
      <trkpt lat="44.95272" lon="0.6405">
        <ele>133.76</ele>
        <time>2020-01-11T14:12:23Z</time>
      </trkpt>
      <trkpt lat="44.95288" lon="0.64046">
        <ele>133.76</ele>
        <time>2020-01-11T14:12:36Z</time>
      </trkpt>
      <trkpt lat="44.95307" lon="0.64063">
        <ele>133.76</ele>
        <time>2020-01-11T14:12:50Z</time>
      </trkpt>
      <trkpt lat="44.95326" lon="0.64084">
        <ele>133.76</ele>
        <time>2020-01-11T14:13:07Z</time>
      </trkpt>
      <trkpt lat="44.95327" lon="0.64085">
        <ele>133.76</ele>
        <time>2020-01-11T14:13:08Z</time>
      </trkpt>
      <trkpt lat="44.95328" lon="0.64086">
        <ele>133.76</ele>
        <time>2020-01-11T14:13:09Z</time>
      </trkpt>
      <trkpt lat="44.95329" lon="0.64087">
        <ele>133.76</ele>
        <time>2020-01-11T14:13:10Z</time>
      </trkpt>
      <trkpt lat="44.9533" lon="0.64088">
        <ele>133.76</ele>
        <time>2020-01-11T14:13:11Z</time>
      </trkpt>
      <trkpt lat="44.95331" lon="0.64089">
        <ele>133.76</ele>
        <time>2020-01-11T14:13:12Z</time>
      </trkpt>
      <trkpt lat="44.95332" lon="0.6409">
        <ele>133.76</ele>
        <time>2020-01-11T14:13:13Z</time>
      </trkpt>
      <trkpt lat="44.95333" lon="0.64091">
        <ele>133.76</ele>
        <time>2020-01-11T14:13:14Z</time>
      </trkpt>
      <trkpt lat="44.95357" lon="0.64113">
        <ele>134.24</ele>
        <time>2020-01-11T14:13:34Z</time>
      </trkpt>
      <trkpt lat="44.95385" lon="0.64139">
        <ele>134.72</ele>
        <time>2020-01-11T14:13:55Z</time>
      </trkpt>
      <trkpt lat="44.95408" lon="0.64158">
        <ele>135.68</ele>
        <time>2020-01-11T14:14:13Z</time>
      </trkpt>
      <trkpt lat="44.95434" lon="0.64176">
        <ele>136.16</ele>
        <time>2020-01-11T14:14:31Z</time>
      </trkpt>
      <trkpt lat="44.95455" lon="0.64194">
        <ele>136.64</ele>
        <time>2020-01-11T14:14:47Z</time>
      </trkpt>
      <trkpt lat="44.95473" lon="0.64222">
        <ele>136.64</ele>
        <time>2020-01-11T14:15:05Z</time>
      </trkpt>
      <trkpt lat="44.95493" lon="0.64254">
        <ele>137.61</ele>
        <time>2020-01-11T14:15:25Z</time>
      </trkpt>
      <trkpt lat="44.95511" lon="0.6428">
        <ele>138.09</ele>
        <time>2020-01-11T14:15:41Z</time>
      </trkpt>
      <trkpt lat="44.95531" lon="0.64302">
        <ele>139.05</ele>
        <time>2020-01-11T14:15:57Z</time>
      </trkpt>
      <trkpt lat="44.95533" lon="0.64305">
        <ele>139.05</ele>
        <time>2020-01-11T14:15:59Z</time>
      </trkpt>
      <trkpt lat="44.95535" lon="0.64307">
        <ele>139.05</ele>
        <time>2020-01-11T14:16:00Z</time>
      </trkpt>
      <trkpt lat="44.95557" lon="0.64334">
        <ele>139.05</ele>
        <time>2020-01-11T14:16:20Z</time>
      </trkpt>
      <trkpt lat="44.9558" lon="0.64361">
        <ele>140.01</ele>
        <time>2020-01-11T14:16:41Z</time>
      </trkpt>
      <trkpt lat="44.95608" lon="0.64385">
        <ele>140.01</ele>
        <time>2020-01-11T14:17:01Z</time>
      </trkpt>
      <trkpt lat="44.95631" lon="0.64403">
        <ele>140.01</ele>
        <time>2020-01-11T14:17:18Z</time>
      </trkpt>
      <trkpt lat="44.95654" lon="0.64416">
        <ele>140.01</ele>
        <time>2020-01-11T14:17:35Z</time>
      </trkpt>
      <trkpt lat="44.95683" lon="0.64427">
        <ele>140.01</ele>
        <time>2020-01-11T14:17:53Z</time>
      </trkpt>
      <trkpt lat="44.9571" lon="0.64438">
        <ele>140.01</ele>
        <time>2020-01-11T14:18:12Z</time>
      </trkpt>
      <trkpt lat="44.95732" lon="0.64452">
        <ele>140.01</ele>
        <time>2020-01-11T14:18:28Z</time>
      </trkpt>
      <trkpt lat="44.95754" lon="0.64469">
        <ele>140.01</ele>
        <time>2020-01-11T14:18:43Z</time>
      </trkpt>
      <trkpt lat="44.95782" lon="0.64492">
        <ele>140.97</ele>
        <time>2020-01-11T14:19:03Z</time>
      </trkpt>
      <trkpt lat="44.95806" lon="0.64507">
        <ele>141.45</ele>
        <time>2020-01-11T14:19:21Z</time>
      </trkpt>
      <trkpt lat="44.95833" lon="0.64529">
        <ele>141.93</ele>
        <time>2020-01-11T14:19:41Z</time>
      </trkpt>
      <trkpt lat="44.95859" lon="0.64551">
        <ele>142.89</ele>
        <time>2020-01-11T14:20:02Z</time>
      </trkpt>
      <trkpt lat="44.95886" lon="0.64572">
        <ele>142.41</ele>
        <time>2020-01-11T14:20:21Z</time>
      </trkpt>
      <trkpt lat="44.9591" lon="0.6459">
        <ele>142.41</ele>
        <time>2020-01-11T14:20:40Z</time>
      </trkpt>
      <trkpt lat="44.95932" lon="0.64608">
        <ele>142.41</ele>
        <time>2020-01-11T14:20:58Z</time>
      </trkpt>
      <trkpt lat="44.9596" lon="0.64626">
        <ele>142.41</ele>
        <time>2020-01-11T14:21:17Z</time>
      </trkpt>
      <trkpt lat="44.95987" lon="0.64638">
        <ele>142.41</ele>
        <time>2020-01-11T14:21:36Z</time>
      </trkpt>
      <trkpt lat="44.96014" lon="0.64651">
        <ele>142.41</ele>
        <time>2020-01-11T14:21:56Z</time>
      </trkpt>
      <trkpt lat="44.96028" lon="0.64653">
        <ele>142.89</ele>
        <time>2020-01-11T14:22:12Z</time>
      </trkpt>
      <trkpt lat="44.96027" lon="0.64652">
        <ele>142.89</ele>
        <time>2020-01-11T14:22:14Z</time>
      </trkpt>
      <trkpt lat="44.96026" lon="0.64651">
        <ele>141.45</ele>
        <time>2020-01-11T14:22:15Z</time>
      </trkpt>
      <trkpt lat="44.96025" lon="0.64649">
        <ele>141.45</ele>
        <time>2020-01-11T14:22:16Z</time>
      </trkpt>
      <trkpt lat="44.96024" lon="0.64649">
        <ele>141.45</ele>
        <time>2020-01-11T14:22:17Z</time>
      </trkpt>
      <trkpt lat="44.96023" lon="0.64647">
        <ele>140.97</ele>
        <time>2020-01-11T14:22:18Z</time>
      </trkpt>
      <trkpt lat="44.96005" lon="0.6463">
        <ele>138.57</ele>
        <time>2020-01-11T14:22:34Z</time>
      </trkpt>
      <trkpt lat="44.95989" lon="0.64614">
        <ele>135.68</ele>
        <time>2020-01-11T14:22:49Z</time>
      </trkpt>
      <trkpt lat="44.95971" lon="0.64591">
        <ele>132.8</ele>
        <time>2020-01-11T14:23:04Z</time>
      </trkpt>
      <trkpt lat="44.95956" lon="0.6457">
        <ele>131.36</ele>
        <time>2020-01-11T14:23:20Z</time>
      </trkpt>
      <trkpt lat="44.9593" lon="0.64551">
        <ele>129.92</ele>
        <time>2020-01-11T14:23:38Z</time>
      </trkpt>
      <trkpt lat="44.9592" lon="0.6454">
        <ele>129.43</ele>
        <time>2020-01-11T14:23:47Z</time>
      </trkpt>
      <trkpt lat="44.9592" lon="0.64538">
        <ele>129.43</ele>
        <time>2020-01-11T14:23:48Z</time>
      </trkpt>
      <trkpt lat="44.9592" lon="0.64536">
        <ele>129.43</ele>
        <time>2020-01-11T14:23:49Z</time>
      </trkpt>
      <trkpt lat="44.9592" lon="0.64534">
        <ele>129.43</ele>
        <time>2020-01-11T14:23:50Z</time>
      </trkpt>
      <trkpt lat="44.9592" lon="0.64532">
        <ele>129.43</ele>
        <time>2020-01-11T14:23:51Z</time>
      </trkpt>
      <trkpt lat="44.95921" lon="0.6453">
        <ele>128.95</ele>
        <time>2020-01-11T14:23:52Z</time>
      </trkpt>
      <trkpt lat="44.95922" lon="0.64528">
        <ele>128.95</ele>
        <time>2020-01-11T14:23:53Z</time>
      </trkpt>
      <trkpt lat="44.95922" lon="0.64527">
        <ele>128.47</ele>
        <time>2020-01-11T14:23:54Z</time>
      </trkpt>
      <trkpt lat="44.95926" lon="0.64524">
        <ele>127.99</ele>
        <time>2020-01-11T14:23:57Z</time>
      </trkpt>
      <trkpt lat="44.95928" lon="0.64524">
        <ele>127.99</ele>
        <time>2020-01-11T14:23:58Z</time>
      </trkpt>
      <trkpt lat="44.95929" lon="0.64524">
        <ele>127.99</ele>
        <time>2020-01-11T14:23:59Z</time>
      </trkpt>
      <trkpt lat="44.95931" lon="0.64523">
        <ele>127.51</ele>
        <time>2020-01-11T14:24:00Z</time>
      </trkpt>
      <trkpt lat="44.95932" lon="0.64524">
        <ele>127.51</ele>
        <time>2020-01-11T14:24:01Z</time>
      </trkpt>
      <trkpt lat="44.95934" lon="0.64524">
        <ele>127.51</ele>
        <time>2020-01-11T14:24:02Z</time>
      </trkpt>
      <trkpt lat="44.95936" lon="0.64524">
        <ele>127.03</ele>
        <time>2020-01-11T14:24:03Z</time>
      </trkpt>
      <trkpt lat="44.95963" lon="0.64524">
        <ele>124.15</ele>
        <time>2020-01-11T14:24:22Z</time>
      </trkpt>
      <trkpt lat="44.95989" lon="0.64526">
        <ele>122.22</ele>
        <time>2020-01-11T14:24:39Z</time>
      </trkpt>
      <trkpt lat="44.96016" lon="0.64527">
        <ele>120.3</ele>
        <time>2020-01-11T14:24:56Z</time>
      </trkpt>
      <trkpt lat="44.96041" lon="0.64528">
        <ele>117.9</ele>
        <time>2020-01-11T14:25:14Z</time>
      </trkpt>
      <trkpt lat="44.9607" lon="0.64528">
        <ele>115.01</ele>
        <time>2020-01-11T14:25:31Z</time>
      </trkpt>
      <trkpt lat="44.96091" lon="0.64527">
        <ele>114.05</ele>
        <time>2020-01-11T14:25:44Z</time>
      </trkpt>
      <trkpt lat="44.96113" lon="0.64526">
        <ele>111.17</ele>
        <time>2020-01-11T14:26:00Z</time>
      </trkpt>
      <trkpt lat="44.96131" lon="0.64511">
        <ele>107.81</ele>
        <time>2020-01-11T14:26:16Z</time>
      </trkpt>
      <trkpt lat="44.96132" lon="0.64477">
        <ele>106.36</ele>
        <time>2020-01-11T14:26:32Z</time>
      </trkpt>
      <trkpt lat="44.96134" lon="0.64454">
        <ele>105.88</ele>
        <time>2020-01-11T14:26:47Z</time>
      </trkpt>
      <trkpt lat="44.96138" lon="0.64424">
        <ele>105.88</ele>
        <time>2020-01-11T14:27:05Z</time>
      </trkpt>
      <trkpt lat="44.9614" lon="0.64419">
        <ele>106.84</ele>
        <time>2020-01-11T14:27:09Z</time>
      </trkpt>
      <trkpt lat="44.96142" lon="0.64416">
        <ele>107.32</ele>
        <time>2020-01-11T14:27:12Z</time>
      </trkpt>
      <trkpt lat="44.96144" lon="0.64415">
        <ele>107.32</ele>
        <time>2020-01-11T14:27:13Z</time>
      </trkpt>
      <trkpt lat="44.96145" lon="0.64414">
        <ele>107.32</ele>
        <time>2020-01-11T14:27:14Z</time>
      </trkpt>
      <trkpt lat="44.96155" lon="0.64413">
        <ele>107.32</ele>
        <time>2020-01-11T14:27:21Z</time>
      </trkpt>
      <trkpt lat="44.96157" lon="0.64412">
        <ele>107.32</ele>
        <time>2020-01-11T14:27:22Z</time>
      </trkpt>
      <trkpt lat="44.9618" lon="0.64408">
        <ele>107.81</ele>
        <time>2020-01-11T14:27:38Z</time>
      </trkpt>
      <trkpt lat="44.96201" lon="0.64411">
        <ele>107.81</ele>
        <time>2020-01-11T14:27:53Z</time>
      </trkpt>
      <trkpt lat="44.96221" lon="0.64416">
        <ele>107.81</ele>
        <time>2020-01-11T14:28:07Z</time>
      </trkpt>
      <trkpt lat="44.96238" lon="0.64419">
        <ele>109.25</ele>
        <time>2020-01-11T14:28:21Z</time>
      </trkpt>
      <trkpt lat="44.9624" lon="0.6442">
        <ele>109.25</ele>
        <time>2020-01-11T14:28:22Z</time>
      </trkpt>
      <trkpt lat="44.96241" lon="0.6442">
        <ele>109.25</ele>
        <time>2020-01-11T14:28:23Z</time>
      </trkpt>
      <trkpt lat="44.96242" lon="0.6442">
        <ele>109.25</ele>
        <time>2020-01-11T14:28:24Z</time>
      </trkpt>
      <trkpt lat="44.96243" lon="0.6442">
        <ele>109.25</ele>
        <time>2020-01-11T14:28:25Z</time>
      </trkpt>
      <trkpt lat="44.96244" lon="0.6442">
        <ele>109.25</ele>
        <time>2020-01-11T14:28:26Z</time>
      </trkpt>
      <trkpt lat="44.96257" lon="0.64421">
        <ele>110.69</ele>
        <time>2020-01-11T14:28:38Z</time>
      </trkpt>
      <trkpt lat="44.96279" lon="0.6443">
        <ele>112.13</ele>
        <time>2020-01-11T14:28:51Z</time>
      </trkpt>
      <trkpt lat="44.96302" lon="0.64437">
        <ele>113.09</ele>
        <time>2020-01-11T14:29:07Z</time>
      </trkpt>
      <trkpt lat="44.9633" lon="0.64449">
        <ele>113.57</ele>
        <time>2020-01-11T14:29:23Z</time>
      </trkpt>
      <trkpt lat="44.96352" lon="0.64455">
        <ele>113.57</ele>
        <time>2020-01-11T14:29:39Z</time>
      </trkpt>
      <trkpt lat="44.96376" lon="0.64457">
        <ele>113.57</ele>
        <time>2020-01-11T14:29:56Z</time>
      </trkpt>
      <trkpt lat="44.96399" lon="0.64458">
        <ele>114.53</ele>
        <time>2020-01-11T14:30:13Z</time>
      </trkpt>
      <trkpt lat="44.9642" lon="0.64458">
        <ele>114.53</ele>
        <time>2020-01-11T14:30:27Z</time>
      </trkpt>
      <trkpt lat="44.96442" lon="0.64462">
        <ele>113.57</ele>
        <time>2020-01-11T14:30:45Z</time>
      </trkpt>
      <trkpt lat="44.96456" lon="0.64454">
        <ele>113.09</ele>
        <time>2020-01-11T14:30:58Z</time>
      </trkpt>
      <trkpt lat="44.96465" lon="0.64438">
        <ele>114.53</ele>
        <time>2020-01-11T14:31:09Z</time>
      </trkpt>
      <trkpt lat="44.96476" lon="0.64418">
        <ele>115.98</ele>
        <time>2020-01-11T14:31:23Z</time>
      </trkpt>
      <trkpt lat="44.96478" lon="0.64409">
        <ele>116.46</ele>
        <time>2020-01-11T14:31:27Z</time>
      </trkpt>
      <trkpt lat="44.96485" lon="0.64386">
        <ele>116.94</ele>
        <time>2020-01-11T14:31:41Z</time>
      </trkpt>
      <trkpt lat="44.9649" lon="0.64376">
        <ele>117.42</ele>
        <time>2020-01-11T14:31:46Z</time>
      </trkpt>
      <trkpt lat="44.96491" lon="0.64372">
        <ele>117.42</ele>
        <time>2020-01-11T14:31:48Z</time>
      </trkpt>
      <trkpt lat="44.96504" lon="0.6434">
        <ele>116.94</ele>
        <time>2020-01-11T14:32:06Z</time>
      </trkpt>
      <trkpt lat="44.96516" lon="0.6432">
        <ele>117.42</ele>
        <time>2020-01-11T14:32:19Z</time>
      </trkpt>
      <trkpt lat="44.96519" lon="0.64317">
        <ele>117.42</ele>
        <time>2020-01-11T14:32:21Z</time>
      </trkpt>
      <trkpt lat="44.96526" lon="0.64308">
        <ele>117.42</ele>
        <time>2020-01-11T14:32:27Z</time>
      </trkpt>
      <trkpt lat="44.96532" lon="0.643">
        <ele>117.42</ele>
        <time>2020-01-11T14:32:32Z</time>
      </trkpt>
      <trkpt lat="44.96544" lon="0.64279">
        <ele>117.42</ele>
        <time>2020-01-11T14:32:46Z</time>
      </trkpt>
      <trkpt lat="44.96546" lon="0.64277">
        <ele>117.42</ele>
        <time>2020-01-11T14:32:48Z</time>
      </trkpt>
      <trkpt lat="44.96554" lon="0.64269">
        <ele>117.42</ele>
        <time>2020-01-11T14:32:54Z</time>
      </trkpt>
      <trkpt lat="44.96569" lon="0.64255">
        <ele>118.38</ele>
        <time>2020-01-11T14:33:08Z</time>
      </trkpt>
      <trkpt lat="44.9657" lon="0.64254">
        <ele>118.38</ele>
        <time>2020-01-11T14:33:09Z</time>
      </trkpt>
      <trkpt lat="44.96582" lon="0.64242">
        <ele>120.3</ele>
        <time>2020-01-11T14:33:20Z</time>
      </trkpt>
      <trkpt lat="44.96603" lon="0.64235">
        <ele>121.26</ele>
        <time>2020-01-11T14:33:33Z</time>
      </trkpt>
      <trkpt lat="44.96618" lon="0.64233">
        <ele>121.26</ele>
        <time>2020-01-11T14:33:45Z</time>
      </trkpt>
      <trkpt lat="44.96634" lon="0.64225">
        <ele>121.26</ele>
        <time>2020-01-11T14:33:58Z</time>
      </trkpt>
      <trkpt lat="44.9665" lon="0.64216">
        <ele>121.26</ele>
        <time>2020-01-11T14:34:10Z</time>
      </trkpt>
      <trkpt lat="44.96669" lon="0.6421">
        <ele>121.26</ele>
        <time>2020-01-11T14:34:22Z</time>
      </trkpt>
      <trkpt lat="44.96675" lon="0.64206">
        <ele>121.26</ele>
        <time>2020-01-11T14:34:27Z</time>
      </trkpt>
      <trkpt lat="44.96691" lon="0.64211">
        <ele>119.82</ele>
        <time>2020-01-11T14:34:40Z</time>
      </trkpt>
      <trkpt lat="44.96701" lon="0.64214">
        <ele>119.82</ele>
        <time>2020-01-11T14:34:53Z</time>
      </trkpt>
      <trkpt lat="44.96701" lon="0.64213">
        <ele>119.82</ele>
        <time>2020-01-11T14:34:55Z</time>
      </trkpt>
      <trkpt lat="44.96709" lon="0.6422">
        <ele>119.82</ele>
        <time>2020-01-11T14:34:58Z</time>
      </trkpt>
      <trkpt lat="44.96738" lon="0.64259">
        <ele>119.82</ele>
        <time>2020-01-11T14:35:14Z</time>
      </trkpt>
      <trkpt lat="44.96751" lon="0.64275">
        <ele>119.34</ele>
        <time>2020-01-11T14:35:22Z</time>
      </trkpt>
      <trkpt lat="44.96749" lon="0.64309">
        <ele>118.86</ele>
        <time>2020-01-11T14:35:37Z</time>
      </trkpt>
      <trkpt lat="44.96749" lon="0.64318">
        <ele>118.86</ele>
        <time>2020-01-11T14:35:41Z</time>
      </trkpt>
      <trkpt lat="44.96765" lon="0.64337">
        <ele>118.86</ele>
        <time>2020-01-11T14:35:58Z</time>
      </trkpt>
      <trkpt lat="44.96783" lon="0.6435">
        <ele>119.82</ele>
        <time>2020-01-11T14:36:12Z</time>
      </trkpt>
      <trkpt lat="44.96794" lon="0.6436">
        <ele>120.78</ele>
        <time>2020-01-11T14:36:21Z</time>
      </trkpt>
      <trkpt lat="44.96797" lon="0.64399">
        <ele>120.78</ele>
        <time>2020-01-11T14:36:38Z</time>
      </trkpt>
      <trkpt lat="44.96802" lon="0.64418">
        <ele>121.26</ele>
        <time>2020-01-11T14:36:52Z</time>
      </trkpt>
      <trkpt lat="44.96802" lon="0.64417">
        <ele>121.74</ele>
        <time>2020-01-11T14:37:12Z</time>
      </trkpt>
      <trkpt lat="44.968" lon="0.64418">
        <ele>121.74</ele>
        <time>2020-01-11T14:37:32Z</time>
      </trkpt>
      <trkpt lat="44.96799" lon="0.64419">
        <ele>122.22</ele>
        <time>2020-01-11T14:37:56Z</time>
      </trkpt>
      <trkpt lat="44.968" lon="0.64417">
        <ele>122.71</ele>
        <time>2020-01-11T14:38:20Z</time>
      </trkpt>
      <trkpt lat="44.96799" lon="0.64416">
        <ele>122.71</ele>
        <time>2020-01-11T14:38:40Z</time>
      </trkpt>
      <trkpt lat="44.96803" lon="0.6442">
        <ele>122.71</ele>
        <time>2020-01-11T14:39:05Z</time>
      </trkpt>
      <trkpt lat="44.96802" lon="0.64418">
        <ele>122.71</ele>
        <time>2020-01-11T14:39:19Z</time>
      </trkpt>
      <trkpt lat="44.96798" lon="0.64415">
        <ele>122.71</ele>
        <time>2020-01-11T14:39:38Z</time>
      </trkpt>
      <trkpt lat="44.96801" lon="0.64415">
        <ele>122.71</ele>
        <time>2020-01-11T14:39:58Z</time>
      </trkpt>
      <trkpt lat="44.96816" lon="0.64417">
        <ele>123.19</ele>
        <time>2020-01-11T14:40:19Z</time>
      </trkpt>
      <trkpt lat="44.96821" lon="0.64419">
        <ele>123.19</ele>
        <time>2020-01-11T14:40:23Z</time>
      </trkpt>
      <trkpt lat="44.96855" lon="0.64427">
        <ele>123.67</ele>
        <time>2020-01-11T14:40:47Z</time>
      </trkpt>
      <trkpt lat="44.96883" lon="0.64433">
        <ele>124.63</ele>
        <time>2020-01-11T14:41:09Z</time>
      </trkpt>
      <trkpt lat="44.96912" lon="0.64435">
        <ele>125.59</ele>
        <time>2020-01-11T14:41:31Z</time>
      </trkpt>
      <trkpt lat="44.96945" lon="0.64439">
        <ele>126.55</ele>
        <time>2020-01-11T14:41:55Z</time>
      </trkpt>
      <trkpt lat="44.96977" lon="0.64445">
        <ele>127.51</ele>
        <time>2020-01-11T14:42:15Z</time>
      </trkpt>
      <trkpt lat="44.97017" lon="0.64449">
        <ele>128.47</ele>
        <time>2020-01-11T14:42:40Z</time>
      </trkpt>
      <trkpt lat="44.97051" lon="0.64465">
        <ele>129.43</ele>
        <time>2020-01-11T14:43:02Z</time>
      </trkpt>
      <trkpt lat="44.97083" lon="0.64481">
        <ele>130.88</ele>
        <time>2020-01-11T14:43:24Z</time>
      </trkpt>
      <trkpt lat="44.97096" lon="0.64482">
        <ele>131.36</ele>
        <time>2020-01-11T14:43:34Z</time>
      </trkpt>
      <trkpt lat="44.97106" lon="0.64477">
        <ele>130.4</ele>
        <time>2020-01-11T14:43:44Z</time>
      </trkpt>
      <trkpt lat="44.97114" lon="0.64447">
        <ele>130.4</ele>
        <time>2020-01-11T14:44:06Z</time>
      </trkpt>
      <trkpt lat="44.97118" lon="0.64419">
        <ele>131.84</ele>
        <time>2020-01-11T14:44:21Z</time>
      </trkpt>
      <trkpt lat="44.9714" lon="0.64391">
        <ele>134.72</ele>
        <time>2020-01-11T14:44:44Z</time>
      </trkpt>
      <trkpt lat="44.97161" lon="0.64371">
        <ele>136.16</ele>
        <time>2020-01-11T14:45:03Z</time>
      </trkpt>
      <trkpt lat="44.97192" lon="0.64339">
        <ele>138.09</ele>
        <time>2020-01-11T14:45:29Z</time>
      </trkpt>
      <trkpt lat="44.97216" lon="0.64311">
        <ele>140.97</ele>
        <time>2020-01-11T14:45:52Z</time>
      </trkpt>
      <trkpt lat="44.9724" lon="0.64273">
        <ele>141.45</ele>
        <time>2020-01-11T14:46:15Z</time>
      </trkpt>
      <trkpt lat="44.97259" lon="0.64245">
        <ele>142.41</ele>
        <time>2020-01-11T14:46:36Z</time>
      </trkpt>
      <trkpt lat="44.97286" lon="0.64209">
        <ele>143.37</ele>
        <time>2020-01-11T14:46:58Z</time>
      </trkpt>
      <trkpt lat="44.97309" lon="0.6417">
        <ele>144.34</ele>
        <time>2020-01-11T14:47:21Z</time>
      </trkpt>
      <trkpt lat="44.97328" lon="0.64138">
        <ele>145.3</ele>
        <time>2020-01-11T14:47:42Z</time>
      </trkpt>
      <trkpt lat="44.97356" lon="0.64105">
        <ele>146.26</ele>
        <time>2020-01-11T14:48:06Z</time>
      </trkpt>
      <trkpt lat="44.97382" lon="0.64074">
        <ele>147.7</ele>
        <time>2020-01-11T14:48:28Z</time>
      </trkpt>
      <trkpt lat="44.97403" lon="0.64033">
        <ele>149.14</ele>
        <time>2020-01-11T14:48:52Z</time>
      </trkpt>
      <trkpt lat="44.9742" lon="0.63989">
        <ele>150.1</ele>
        <time>2020-01-11T14:49:14Z</time>
      </trkpt>
      <trkpt lat="44.97431" lon="0.6397">
        <ele>152.03</ele>
        <time>2020-01-11T14:49:28Z</time>
      </trkpt>
      <trkpt lat="44.97458" lon="0.63934">
        <ele>152.51</ele>
        <time>2020-01-11T14:49:52Z</time>
      </trkpt>
      <trkpt lat="44.97482" lon="0.63914">
        <ele>154.43</ele>
        <time>2020-01-11T14:50:14Z</time>
      </trkpt>
      <trkpt lat="44.97516" lon="0.63908">
        <ele>155.39</ele>
        <time>2020-01-11T14:50:37Z</time>
      </trkpt>
      <trkpt lat="44.97547" lon="0.63893">
        <ele>156.83</ele>
        <time>2020-01-11T14:51:00Z</time>
      </trkpt>
      <trkpt lat="44.97577" lon="0.63887">
        <ele>158.75</ele>
        <time>2020-01-11T14:51:24Z</time>
      </trkpt>
      <trkpt lat="44.97608" lon="0.63888">
        <ele>160.68</ele>
        <time>2020-01-11T14:51:47Z</time>
      </trkpt>
      <trkpt lat="44.97638" lon="0.63896">
        <ele>162.12</ele>
        <time>2020-01-11T14:52:10Z</time>
      </trkpt>
      <trkpt lat="44.97672" lon="0.63894">
        <ele>164.04</ele>
        <time>2020-01-11T14:52:33Z</time>
      </trkpt>
      <trkpt lat="44.97701" lon="0.63903">
        <ele>166.93</ele>
        <time>2020-01-11T14:52:53Z</time>
      </trkpt>
      <trkpt lat="44.97719" lon="0.63915">
        <ele>170.29</ele>
        <time>2020-01-11T14:53:11Z</time>
      </trkpt>
      <trkpt lat="44.97738" lon="0.63932">
        <ele>172.69</ele>
        <time>2020-01-11T14:53:30Z</time>
      </trkpt>
      <trkpt lat="44.97757" lon="0.63944">
        <ele>176.06</ele>
        <time>2020-01-11T14:53:49Z</time>
      </trkpt>
      <trkpt lat="44.97772" lon="0.63956">
        <ele>178.94</ele>
        <time>2020-01-11T14:54:05Z</time>
      </trkpt>
      <trkpt lat="44.97791" lon="0.63961">
        <ele>181.83</ele>
        <time>2020-01-11T14:54:25Z</time>
      </trkpt>
      <trkpt lat="44.97815" lon="0.63966">
        <ele>184.71</ele>
        <time>2020-01-11T14:54:47Z</time>
      </trkpt>
      <trkpt lat="44.97842" lon="0.63965">
        <ele>186.63</ele>
        <time>2020-01-11T14:55:09Z</time>
      </trkpt>
      <trkpt lat="44.97869" lon="0.63966">
        <ele>189.52</ele>
        <time>2020-01-11T14:55:32Z</time>
      </trkpt>
      <trkpt lat="44.97891" lon="0.63969">
        <ele>191.44</ele>
        <time>2020-01-11T14:55:52Z</time>
      </trkpt>
      <trkpt lat="44.97921" lon="0.63987">
        <ele>193.36</ele>
        <time>2020-01-11T14:56:15Z</time>
      </trkpt>
      <trkpt lat="44.97927" lon="0.63989">
        <ele>194.32</ele>
        <time>2020-01-11T14:56:21Z</time>
      </trkpt>
      <trkpt lat="44.97949" lon="0.63996">
        <ele>198.17</ele>
        <time>2020-01-11T14:56:42Z</time>
      </trkpt>
      <trkpt lat="44.97972" lon="0.64006">
        <ele>200.57</ele>
        <time>2020-01-11T14:57:04Z</time>
      </trkpt>
      <trkpt lat="44.97981" lon="0.64012">
        <ele>201.05</ele>
        <time>2020-01-11T14:57:27Z</time>
      </trkpt>
      <trkpt lat="44.97981" lon="0.64013">
        <ele>201.53</ele>
        <time>2020-01-11T14:57:49Z</time>
      </trkpt>
      <trkpt lat="44.97995" lon="0.64017">
        <ele>202.01</ele>
        <time>2020-01-11T14:58:10Z</time>
      </trkpt>
      <trkpt lat="44.97997" lon="0.64017">
        <ele>202.01</ele>
        <time>2020-01-11T14:58:34Z</time>
      </trkpt>
      <trkpt lat="44.97991" lon="0.64021">
        <ele>202.49</ele>
        <time>2020-01-11T14:58:58Z</time>
      </trkpt>
      <trkpt lat="44.97995" lon="0.64014">
        <ele>202.49</ele>
        <time>2020-01-11T14:59:24Z</time>
      </trkpt>
      <trkpt lat="44.97996" lon="0.64003">
        <ele>202.98</ele>
        <time>2020-01-11T14:59:33Z</time>
      </trkpt>
      <trkpt lat="44.9799" lon="0.63972">
        <ele>202.98</ele>
        <time>2020-01-11T14:59:51Z</time>
      </trkpt>
      <trkpt lat="44.97985" lon="0.63925">
        <ele>202.98</ele>
        <time>2020-01-11T15:00:14Z</time>
      </trkpt>
      <trkpt lat="44.97979" lon="0.63886">
        <ele>203.46</ele>
        <time>2020-01-11T15:00:37Z</time>
      </trkpt>
      <trkpt lat="44.97969" lon="0.63848">
        <ele>202.01</ele>
        <time>2020-01-11T15:00:57Z</time>
      </trkpt>
      <trkpt lat="44.97947" lon="0.63807">
        <ele>201.05</ele>
        <time>2020-01-11T15:01:21Z</time>
      </trkpt>
      <trkpt lat="44.97944" lon="0.63803">
        <ele>201.05</ele>
        <time>2020-01-11T15:01:23Z</time>
      </trkpt>
      <trkpt lat="44.97919" lon="0.63764">
        <ele>200.57</ele>
        <time>2020-01-11T15:01:46Z</time>
      </trkpt>
      <trkpt lat="44.97894" lon="0.63721">
        <ele>200.57</ele>
        <time>2020-01-11T15:02:12Z</time>
      </trkpt>
      <trkpt lat="44.97898" lon="0.63704">
        <ele>201.53</ele>
        <time>2020-01-11T15:02:21Z</time>
      </trkpt>
      <trkpt lat="44.97906" lon="0.6366">
        <ele>201.53</ele>
        <time>2020-01-11T15:02:43Z</time>
      </trkpt>
      <trkpt lat="44.97916" lon="0.6363">
        <ele>200.57</ele>
        <time>2020-01-11T15:03:00Z</time>
      </trkpt>
      <trkpt lat="44.97924" lon="0.63583">
        <ele>198.65</ele>
        <time>2020-01-11T15:03:22Z</time>
      </trkpt>
      <trkpt lat="44.97928" lon="0.63545">
        <ele>197.69</ele>
        <time>2020-01-11T15:03:41Z</time>
      </trkpt>
      <trkpt lat="44.97935" lon="0.63495">
        <ele>197.21</ele>
        <time>2020-01-11T15:04:06Z</time>
      </trkpt>
      <trkpt lat="44.97937" lon="0.63446">
        <ele>196.73</ele>
        <time>2020-01-11T15:04:28Z</time>
      </trkpt>
      <trkpt lat="44.97938" lon="0.63391">
        <ele>196.73</ele>
        <time>2020-01-11T15:04:53Z</time>
      </trkpt>
      <trkpt lat="44.97933" lon="0.6336">
        <ele>198.17</ele>
        <time>2020-01-11T15:05:08Z</time>
      </trkpt>
      <trkpt lat="44.97924" lon="0.63319">
        <ele>198.17</ele>
        <time>2020-01-11T15:05:29Z</time>
      </trkpt>
      <trkpt lat="44.97916" lon="0.63269">
        <ele>199.13</ele>
        <time>2020-01-11T15:05:54Z</time>
      </trkpt>
      <trkpt lat="44.97911" lon="0.6321">
        <ele>199.13</ele>
        <time>2020-01-11T15:06:19Z</time>
      </trkpt>
      <trkpt lat="44.97911" lon="0.63154">
        <ele>197.21</ele>
        <time>2020-01-11T15:06:45Z</time>
      </trkpt>
      <trkpt lat="44.97912" lon="0.63095">
        <ele>194.8</ele>
        <time>2020-01-11T15:07:12Z</time>
      </trkpt>
      <trkpt lat="44.9791" lon="0.63041">
        <ele>193.36</ele>
        <time>2020-01-11T15:07:37Z</time>
      </trkpt>
      <trkpt lat="44.97907" lon="0.62993">
        <ele>192.88</ele>
        <time>2020-01-11T15:08:01Z</time>
      </trkpt>
      <trkpt lat="44.97908" lon="0.62955">
        <ele>192.88</ele>
        <time>2020-01-11T15:08:20Z</time>
      </trkpt>
      <trkpt lat="44.97909" lon="0.62915">
        <ele>192.88</ele>
        <time>2020-01-11T15:08:38Z</time>
      </trkpt>
      <trkpt lat="44.97909" lon="0.62871">
        <ele>192.88</ele>
        <time>2020-01-11T15:09:00Z</time>
      </trkpt>
      <trkpt lat="44.9791" lon="0.62859">
        <ele>193.84</ele>
        <time>2020-01-11T15:09:06Z</time>
      </trkpt>
      <trkpt lat="44.97909" lon="0.62811">
        <ele>195.28</ele>
        <time>2020-01-11T15:09:29Z</time>
      </trkpt>
      <trkpt lat="44.97905" lon="0.62778">
        <ele>195.77</ele>
        <time>2020-01-11T15:09:47Z</time>
      </trkpt>
      <trkpt lat="44.979" lon="0.62734">
        <ele>195.77</ele>
        <time>2020-01-11T15:10:07Z</time>
      </trkpt>
      <trkpt lat="44.97902" lon="0.6269">
        <ele>195.77</ele>
        <time>2020-01-11T15:10:25Z</time>
      </trkpt>
      <trkpt lat="44.97902" lon="0.62638">
        <ele>194.8</ele>
        <time>2020-01-11T15:10:48Z</time>
      </trkpt>
      <trkpt lat="44.97902" lon="0.62572">
        <ele>193.36</ele>
        <time>2020-01-11T15:11:16Z</time>
      </trkpt>
      <trkpt lat="44.979" lon="0.62525">
        <ele>194.32</ele>
        <time>2020-01-11T15:11:37Z</time>
      </trkpt>
      <trkpt lat="44.9791" lon="0.62473">
        <ele>192.4</ele>
        <time>2020-01-11T15:12:03Z</time>
      </trkpt>
      <trkpt lat="44.97919" lon="0.62436">
        <ele>192.4</ele>
        <time>2020-01-11T15:12:20Z</time>
      </trkpt>
      <trkpt lat="44.97925" lon="0.62396">
        <ele>193.84</ele>
        <time>2020-01-11T15:12:40Z</time>
      </trkpt>
      <trkpt lat="44.97925" lon="0.62353">
        <ele>195.28</ele>
        <time>2020-01-11T15:13:02Z</time>
      </trkpt>
      <trkpt lat="44.97929" lon="0.62304">
        <ele>197.69</ele>
        <time>2020-01-11T15:13:26Z</time>
      </trkpt>
      <trkpt lat="44.9795" lon="0.62292">
        <ele>196.73</ele>
        <time>2020-01-11T15:13:43Z</time>
      </trkpt>
      <trkpt lat="44.9798" lon="0.62274">
        <ele>193.84</ele>
        <time>2020-01-11T15:14:08Z</time>
      </trkpt>
      <trkpt lat="44.9798" lon="0.62272">
        <ele>193.84</ele>
        <time>2020-01-11T15:14:09Z</time>
      </trkpt>
      <trkpt lat="44.9798" lon="0.62269">
        <ele>193.84</ele>
        <time>2020-01-11T15:14:10Z</time>
      </trkpt>
      <trkpt lat="44.9798" lon="0.62266">
        <ele>193.84</ele>
        <time>2020-01-11T15:14:11Z</time>
      </trkpt>
      <trkpt lat="44.97979" lon="0.62264">
        <ele>193.84</ele>
        <time>2020-01-11T15:14:12Z</time>
      </trkpt>
      <trkpt lat="44.97979" lon="0.62262">
        <ele>193.36</ele>
        <time>2020-01-11T15:14:13Z</time>
      </trkpt>
      <trkpt lat="44.97961" lon="0.62231">
        <ele>192.88</ele>
        <time>2020-01-11T15:14:33Z</time>
      </trkpt>
      <trkpt lat="44.97947" lon="0.62188">
        <ele>190.48</ele>
        <time>2020-01-11T15:14:57Z</time>
      </trkpt>
      <trkpt lat="44.97943" lon="0.62144">
        <ele>189.52</ele>
        <time>2020-01-11T15:15:21Z</time>
      </trkpt>
      <trkpt lat="44.97941" lon="0.62101">
        <ele>189.52</ele>
        <time>2020-01-11T15:15:42Z</time>
      </trkpt>
      <trkpt lat="44.97942" lon="0.62078">
        <ele>189.52</ele>
        <time>2020-01-11T15:15:52Z</time>
      </trkpt>
      <trkpt lat="44.97945" lon="0.62023">
        <ele>190</ele>
        <time>2020-01-11T15:16:16Z</time>
      </trkpt>
      <trkpt lat="44.97953" lon="0.61968">
        <ele>189.52</ele>
        <time>2020-01-11T15:16:43Z</time>
      </trkpt>
      <trkpt lat="44.97958" lon="0.61917">
        <ele>189.04</ele>
        <time>2020-01-11T15:17:08Z</time>
      </trkpt>
      <trkpt lat="44.97959" lon="0.61866">
        <ele>189.04</ele>
        <time>2020-01-11T15:17:32Z</time>
      </trkpt>
      <trkpt lat="44.97961" lon="0.6182">
        <ele>190</ele>
        <time>2020-01-11T15:17:54Z</time>
      </trkpt>
      <trkpt lat="44.97961" lon="0.61772">
        <ele>190.48</ele>
        <time>2020-01-11T15:18:16Z</time>
      </trkpt>
      <trkpt lat="44.9796" lon="0.61731">
        <ele>191.44</ele>
        <time>2020-01-11T15:18:38Z</time>
      </trkpt>
      <trkpt lat="44.9795" lon="0.61689">
        <ele>190.48</ele>
        <time>2020-01-11T15:19:00Z</time>
      </trkpt>
      <trkpt lat="44.97941" lon="0.61642">
        <ele>189.52</ele>
        <time>2020-01-11T15:19:23Z</time>
      </trkpt>
      <trkpt lat="44.97935" lon="0.61596">
        <ele>188.08</ele>
        <time>2020-01-11T15:19:47Z</time>
      </trkpt>
      <trkpt lat="44.97923" lon="0.61546">
        <ele>187.11</ele>
        <time>2020-01-11T15:20:10Z</time>
      </trkpt>
      <trkpt lat="44.97915" lon="0.61492">
        <ele>186.15</ele>
        <time>2020-01-11T15:20:35Z</time>
      </trkpt>
      <trkpt lat="44.97908" lon="0.61447">
        <ele>185.67</ele>
        <time>2020-01-11T15:20:58Z</time>
      </trkpt>
      <trkpt lat="44.979" lon="0.61403">
        <ele>184.71</ele>
        <time>2020-01-11T15:21:20Z</time>
      </trkpt>
      <trkpt lat="44.97891" lon="0.61372">
        <ele>183.75</ele>
        <time>2020-01-11T15:21:36Z</time>
      </trkpt>
      <trkpt lat="44.97874" lon="0.61328">
        <ele>183.27</ele>
        <time>2020-01-11T15:21:59Z</time>
      </trkpt>
      <trkpt lat="44.97859" lon="0.61299">
        <ele>182.79</ele>
        <time>2020-01-11T15:22:15Z</time>
      </trkpt>
      <trkpt lat="44.97845" lon="0.61258">
        <ele>181.83</ele>
        <time>2020-01-11T15:22:36Z</time>
      </trkpt>
      <trkpt lat="44.97825" lon="0.61219">
        <ele>179.42</ele>
        <time>2020-01-11T15:23:00Z</time>
      </trkpt>
      <trkpt lat="44.97801" lon="0.61177">
        <ele>178.94</ele>
        <time>2020-01-11T15:23:28Z</time>
      </trkpt>
      <trkpt lat="44.97781" lon="0.61145">
        <ele>179.42</ele>
        <time>2020-01-11T15:23:50Z</time>
      </trkpt>
      <trkpt lat="44.97758" lon="0.61103">
        <ele>180.87</ele>
        <time>2020-01-11T15:24:11Z</time>
      </trkpt>
      <trkpt lat="44.97738" lon="0.6107">
        <ele>183.75</ele>
        <time>2020-01-11T15:24:32Z</time>
      </trkpt>
      <trkpt lat="44.97717" lon="0.61047">
        <ele>186.15</ele>
        <time>2020-01-11T15:24:54Z</time>
      </trkpt>
      <trkpt lat="44.977" lon="0.61026">
        <ele>188.08</ele>
        <time>2020-01-11T15:25:13Z</time>
      </trkpt>
      <trkpt lat="44.97678" lon="0.61001">
        <ele>190</ele>
        <time>2020-01-11T15:25:35Z</time>
      </trkpt>
      <trkpt lat="44.97659" lon="0.60964">
        <ele>190</ele>
        <time>2020-01-11T15:25:58Z</time>
      </trkpt>
      <trkpt lat="44.97646" lon="0.60941">
        <ele>188.56</ele>
        <time>2020-01-11T15:26:14Z</time>
      </trkpt>
      <trkpt lat="44.97639" lon="0.6093">
        <ele>188.56</ele>
        <time>2020-01-11T15:26:22Z</time>
      </trkpt>
      <trkpt lat="44.97638" lon="0.60927">
        <ele>188.56</ele>
        <time>2020-01-11T15:26:23Z</time>
      </trkpt>
      <trkpt lat="44.97627" lon="0.60915">
        <ele>188.56</ele>
        <time>2020-01-11T15:26:34Z</time>
      </trkpt>
      <trkpt lat="44.97622" lon="0.6091">
        <ele>188.56</ele>
        <time>2020-01-11T15:26:51Z</time>
      </trkpt>
      <trkpt lat="44.97619" lon="0.60891">
        <ele>188.56</ele>
        <time>2020-01-11T15:27:06Z</time>
      </trkpt>
      <trkpt lat="44.97618" lon="0.60884">
        <ele>188.56</ele>
        <time>2020-01-11T15:27:11Z</time>
      </trkpt>
      <trkpt lat="44.97616" lon="0.60855">
        <ele>188.08</ele>
        <time>2020-01-11T15:27:29Z</time>
      </trkpt>
      <trkpt lat="44.97611" lon="0.60822">
        <ele>188.56</ele>
        <time>2020-01-11T15:27:49Z</time>
      </trkpt>
      <trkpt lat="44.97607" lon="0.60772">
        <ele>185.67</ele>
        <time>2020-01-11T15:28:12Z</time>
      </trkpt>
      <trkpt lat="44.97594" lon="0.60724">
        <ele>183.27</ele>
        <time>2020-01-11T15:28:36Z</time>
      </trkpt>
      <trkpt lat="44.97575" lon="0.60689">
        <ele>182.31</ele>
        <time>2020-01-11T15:28:58Z</time>
      </trkpt>
      <trkpt lat="44.97546" lon="0.60656">
        <ele>180.38</ele>
        <time>2020-01-11T15:29:21Z</time>
      </trkpt>
      <trkpt lat="44.97523" lon="0.60622">
        <ele>180.38</ele>
        <time>2020-01-11T15:29:44Z</time>
      </trkpt>
      <trkpt lat="44.97515" lon="0.60584">
        <ele>180.38</ele>
        <time>2020-01-11T15:30:06Z</time>
      </trkpt>
      <trkpt lat="44.97514" lon="0.60529">
        <ele>180.38</ele>
        <time>2020-01-11T15:30:30Z</time>
      </trkpt>
      <trkpt lat="44.97512" lon="0.60475">
        <ele>182.31</ele>
        <time>2020-01-11T15:30:54Z</time>
      </trkpt>
      <trkpt lat="44.97504" lon="0.60429">
        <ele>182.31</ele>
        <time>2020-01-11T15:31:16Z</time>
      </trkpt>
      <trkpt lat="44.97503" lon="0.60427">
        <ele>182.31</ele>
        <time>2020-01-11T15:31:17Z</time>
      </trkpt>
      <trkpt lat="44.97497" lon="0.60399">
        <ele>180.38</ele>
        <time>2020-01-11T15:31:30Z</time>
      </trkpt>
      <trkpt lat="44.97497" lon="0.6035">
        <ele>180.38</ele>
        <time>2020-01-11T15:31:53Z</time>
      </trkpt>
      <trkpt lat="44.97497" lon="0.60345">
        <ele>180.38</ele>
        <time>2020-01-11T15:31:55Z</time>
      </trkpt>
      <trkpt lat="44.97497" lon="0.60304">
        <ele>182.31</ele>
        <time>2020-01-11T15:32:15Z</time>
      </trkpt>
      <trkpt lat="44.97486" lon="0.60255">
        <ele>184.23</ele>
        <time>2020-01-11T15:32:40Z</time>
      </trkpt>
      <trkpt lat="44.97476" lon="0.60249">
        <ele>184.23</ele>
        <time>2020-01-11T15:32:59Z</time>
      </trkpt>
      <trkpt lat="44.97455" lon="0.60277">
        <ele>184.71</ele>
        <time>2020-01-11T15:33:20Z</time>
      </trkpt>
      <trkpt lat="44.9744" lon="0.60295">
        <ele>184.71</ele>
        <time>2020-01-11T15:33:40Z</time>
      </trkpt>
      <trkpt lat="44.97419" lon="0.60327">
        <ele>184.71</ele>
        <time>2020-01-11T15:34:03Z</time>
      </trkpt>
      <trkpt lat="44.97395" lon="0.60363">
        <ele>184.71</ele>
        <time>2020-01-11T15:34:26Z</time>
      </trkpt>
      <trkpt lat="44.97387" lon="0.60374">
        <ele>184.23</ele>
        <time>2020-01-11T15:34:35Z</time>
      </trkpt>
      <trkpt lat="44.97356" lon="0.60418">
        <ele>184.23</ele>
        <time>2020-01-11T15:35:01Z</time>
      </trkpt>
      <trkpt lat="44.97353" lon="0.60421">
        <ele>184.23</ele>
        <time>2020-01-11T15:35:03Z</time>
      </trkpt>
      <trkpt lat="44.97329" lon="0.60449">
        <ele>184.71</ele>
        <time>2020-01-11T15:35:23Z</time>
      </trkpt>
      <trkpt lat="44.97298" lon="0.60477">
        <ele>184.71</ele>
        <time>2020-01-11T15:35:45Z</time>
      </trkpt>
      <trkpt lat="44.97273" lon="0.605">
        <ele>184.71</ele>
        <time>2020-01-11T15:36:07Z</time>
      </trkpt>
      <trkpt lat="44.97245" lon="0.60527">
        <ele>184.71</ele>
        <time>2020-01-11T15:36:31Z</time>
      </trkpt>
      <trkpt lat="44.9722" lon="0.60557">
        <ele>184.71</ele>
        <time>2020-01-11T15:36:55Z</time>
      </trkpt>
      <trkpt lat="44.97194" lon="0.60604">
        <ele>184.71</ele>
        <time>2020-01-11T15:37:23Z</time>
      </trkpt>
      <trkpt lat="44.97172" lon="0.60658">
        <ele>185.19</ele>
        <time>2020-01-11T15:37:49Z</time>
      </trkpt>
      <trkpt lat="44.97148" lon="0.60703">
        <ele>184.71</ele>
        <time>2020-01-11T15:38:16Z</time>
      </trkpt>
      <trkpt lat="44.97126" lon="0.60747">
        <ele>184.71</ele>
        <time>2020-01-11T15:38:40Z</time>
      </trkpt>
      <trkpt lat="44.97096" lon="0.60778">
        <ele>184.71</ele>
        <time>2020-01-11T15:39:05Z</time>
      </trkpt>
      <trkpt lat="44.97064" lon="0.60793">
        <ele>184.71</ele>
        <time>2020-01-11T15:39:26Z</time>
      </trkpt>
      <trkpt lat="44.97033" lon="0.60794">
        <ele>182.79</ele>
        <time>2020-01-11T15:39:51Z</time>
      </trkpt>
      <trkpt lat="44.97003" lon="0.6079">
        <ele>183.27</ele>
        <time>2020-01-11T15:40:12Z</time>
      </trkpt>
      <trkpt lat="44.96964" lon="0.60793">
        <ele>180.87</ele>
        <time>2020-01-11T15:40:36Z</time>
      </trkpt>
      <trkpt lat="44.9693" lon="0.60782">
        <ele>179.9</ele>
        <time>2020-01-11T15:41:02Z</time>
      </trkpt>
      <trkpt lat="44.96904" lon="0.60759">
        <ele>178.94</ele>
        <time>2020-01-11T15:41:24Z</time>
      </trkpt>
      <trkpt lat="44.96876" lon="0.60737">
        <ele>177.5</ele>
        <time>2020-01-11T15:41:48Z</time>
      </trkpt>
      <trkpt lat="44.96844" lon="0.60728">
        <ele>177.5</ele>
        <time>2020-01-11T15:42:12Z</time>
      </trkpt>
      <trkpt lat="44.96837" lon="0.60729">
        <ele>176.06</ele>
        <time>2020-01-11T15:42:16Z</time>
      </trkpt>
      <trkpt lat="44.96811" lon="0.6073">
        <ele>176.06</ele>
        <time>2020-01-11T15:42:37Z</time>
      </trkpt>
      <trkpt lat="44.96784" lon="0.60734">
        <ele>175.1</ele>
        <time>2020-01-11T15:42:58Z</time>
      </trkpt>
      <trkpt lat="44.96775" lon="0.60742">
        <ele>174.14</ele>
        <time>2020-01-11T15:43:07Z</time>
      </trkpt>
      <trkpt lat="44.96774" lon="0.60741">
        <ele>175.1</ele>
        <time>2020-01-11T15:43:09Z</time>
      </trkpt>
      <trkpt lat="44.96755" lon="0.60756">
        <ele>175.1</ele>
        <time>2020-01-11T15:43:25Z</time>
      </trkpt>
      <trkpt lat="44.96724" lon="0.60786">
        <ele>175.1</ele>
        <time>2020-01-11T15:43:50Z</time>
      </trkpt>
      <trkpt lat="44.96697" lon="0.60804">
        <ele>175.58</ele>
        <time>2020-01-11T15:44:14Z</time>
      </trkpt>
      <trkpt lat="44.96689" lon="0.60833">
        <ele>174.14</ele>
        <time>2020-01-11T15:44:30Z</time>
      </trkpt>
      <trkpt lat="44.96686" lon="0.60846">
        <ele>173.17</ele>
        <time>2020-01-11T15:44:38Z</time>
      </trkpt>
      <trkpt lat="44.96681" lon="0.60872">
        <ele>169.81</ele>
        <time>2020-01-11T15:44:56Z</time>
      </trkpt>
      <trkpt lat="44.96676" lon="0.60907">
        <ele>167.89</ele>
        <time>2020-01-11T15:45:18Z</time>
      </trkpt>
      <trkpt lat="44.96677" lon="0.60924">
        <ele>165</ele>
        <time>2020-01-11T15:45:35Z</time>
      </trkpt>
      <trkpt lat="44.96669" lon="0.60957">
        <ele>162.12</ele>
        <time>2020-01-11T15:46:00Z</time>
      </trkpt>
      <trkpt lat="44.96665" lon="0.60972">
        <ele>160.2</ele>
        <time>2020-01-11T15:46:08Z</time>
      </trkpt>
      <trkpt lat="44.96659" lon="0.61011">
        <ele>157.79</ele>
        <time>2020-01-11T15:46:34Z</time>
      </trkpt>
      <trkpt lat="44.96642" lon="0.61038">
        <ele>155.87</ele>
        <time>2020-01-11T15:47:00Z</time>
      </trkpt>
      <trkpt lat="44.9663" lon="0.61058">
        <ele>154.91</ele>
        <time>2020-01-11T15:47:20Z</time>
      </trkpt>
      <trkpt lat="44.96617" lon="0.61083">
        <ele>153.47</ele>
        <time>2020-01-11T15:47:44Z</time>
      </trkpt>
      <trkpt lat="44.96608" lon="0.61122">
        <ele>151.54</ele>
        <time>2020-01-11T15:48:04Z</time>
      </trkpt>
      <trkpt lat="44.96598" lon="0.61155">
        <ele>151.06</ele>
        <time>2020-01-11T15:48:26Z</time>
      </trkpt>
      <trkpt lat="44.96576" lon="0.61176">
        <ele>151.06</ele>
        <time>2020-01-11T15:48:49Z</time>
      </trkpt>
      <trkpt lat="44.96555" lon="0.61191">
        <ele>152.99</ele>
        <time>2020-01-11T15:49:12Z</time>
      </trkpt>
      <trkpt lat="44.96533" lon="0.61221">
        <ele>154.43</ele>
        <time>2020-01-11T15:49:36Z</time>
      </trkpt>
      <trkpt lat="44.96523" lon="0.61247">
        <ele>155.87</ele>
        <time>2020-01-11T15:49:59Z</time>
      </trkpt>
      <trkpt lat="44.96505" lon="0.61265">
        <ele>158.27</ele>
        <time>2020-01-11T15:50:25Z</time>
      </trkpt>
      <trkpt lat="44.96479" lon="0.61282">
        <ele>160.2</ele>
        <time>2020-01-11T15:50:50Z</time>
      </trkpt>
      <trkpt lat="44.96455" lon="0.61309">
        <ele>161.64</ele>
        <time>2020-01-11T15:51:15Z</time>
      </trkpt>
      <trkpt lat="44.96437" lon="0.61333">
        <ele>161.64</ele>
        <time>2020-01-11T15:51:39Z</time>
      </trkpt>
      <trkpt lat="44.96418" lon="0.61359">
        <ele>159.24</ele>
        <time>2020-01-11T15:52:04Z</time>
      </trkpt>
      <trkpt lat="44.96403" lon="0.61388">
        <ele>157.79</ele>
        <time>2020-01-11T15:52:27Z</time>
      </trkpt>
      <trkpt lat="44.9639" lon="0.61421">
        <ele>156.83</ele>
        <time>2020-01-11T15:52:51Z</time>
      </trkpt>
      <trkpt lat="44.96402" lon="0.61418">
        <ele>156.83</ele>
        <time>2020-01-11T15:53:07Z</time>
      </trkpt>
      <trkpt lat="44.964" lon="0.61421">
        <ele>156.83</ele>
        <time>2020-01-11T15:53:35Z</time>
      </trkpt>
      <trkpt lat="44.96401" lon="0.61419">
        <ele>156.83</ele>
        <time>2020-01-11T15:54:12Z</time>
      </trkpt>
      <trkpt lat="44.96402" lon="0.61418">
        <ele>156.83</ele>
        <time>2020-01-11T15:54:37Z</time>
      </trkpt>
      <trkpt lat="44.96393" lon="0.61428">
        <ele>157.79</ele>
        <time>2020-01-11T15:54:53Z</time>
      </trkpt>
      <trkpt lat="44.96366" lon="0.61437">
        <ele>156.35</ele>
        <time>2020-01-11T15:55:15Z</time>
      </trkpt>
      <trkpt lat="44.96345" lon="0.61455">
        <ele>155.39</ele>
        <time>2020-01-11T15:55:37Z</time>
      </trkpt>
      <trkpt lat="44.96325" lon="0.61458">
        <ele>153.95</ele>
        <time>2020-01-11T15:55:58Z</time>
      </trkpt>
      <trkpt lat="44.96294" lon="0.61478">
        <ele>152.51</ele>
        <time>2020-01-11T15:56:20Z</time>
      </trkpt>
      <trkpt lat="44.96263" lon="0.61489">
        <ele>150.58</ele>
        <time>2020-01-11T15:56:41Z</time>
      </trkpt>
      <trkpt lat="44.96228" lon="0.61501">
        <ele>148.18</ele>
        <time>2020-01-11T15:57:05Z</time>
      </trkpt>
      <trkpt lat="44.96196" lon="0.61514">
        <ele>144.82</ele>
        <time>2020-01-11T15:57:25Z</time>
      </trkpt>
      <trkpt lat="44.96173" lon="0.61527">
        <ele>141.93</ele>
        <time>2020-01-11T15:57:45Z</time>
      </trkpt>
      <trkpt lat="44.96149" lon="0.61536">
        <ele>138.57</ele>
        <time>2020-01-11T15:58:03Z</time>
      </trkpt>
      <trkpt lat="44.96134" lon="0.6154">
        <ele>136.16</ele>
        <time>2020-01-11T15:58:12Z</time>
      </trkpt>
      <trkpt lat="44.96121" lon="0.61545">
        <ele>133.28</ele>
        <time>2020-01-11T15:58:23Z</time>
      </trkpt>
      <trkpt lat="44.96107" lon="0.6156">
        <ele>129.43</ele>
        <time>2020-01-11T15:58:36Z</time>
      </trkpt>
      <trkpt lat="44.96084" lon="0.61561">
        <ele>126.07</ele>
        <time>2020-01-11T15:58:52Z</time>
      </trkpt>
      <trkpt lat="44.9607" lon="0.61556">
        <ele>122.71</ele>
        <time>2020-01-11T15:59:04Z</time>
      </trkpt>
      <trkpt lat="44.96047" lon="0.61551">
        <ele>119.34</ele>
        <time>2020-01-11T15:59:20Z</time>
      </trkpt>
      <trkpt lat="44.96027" lon="0.61549">
        <ele>116.46</ele>
        <time>2020-01-11T15:59:34Z</time>
      </trkpt>
      <trkpt lat="44.96007" lon="0.61548">
        <ele>112.61</ele>
        <time>2020-01-11T15:59:48Z</time>
      </trkpt>
      <trkpt lat="44.95992" lon="0.61542">
        <ele>109.25</ele>
        <time>2020-01-11T16:00:02Z</time>
      </trkpt>
      <trkpt lat="44.95973" lon="0.61535">
        <ele>105.88</ele>
        <time>2020-01-11T16:00:17Z</time>
      </trkpt>
      <trkpt lat="44.95965" lon="0.61531">
        <ele>103.96</ele>
        <time>2020-01-11T16:00:24Z</time>
      </trkpt>
      <trkpt lat="44.95959" lon="0.61526">
        <ele>103.96</ele>
        <time>2020-01-11T16:00:28Z</time>
      </trkpt>
      <trkpt lat="44.95921" lon="0.61503">
        <ele>102.04</ele>
        <time>2020-01-11T16:00:54Z</time>
      </trkpt>
      <trkpt lat="44.9589" lon="0.61477">
        <ele>101.56</ele>
        <time>2020-01-11T16:01:19Z</time>
      </trkpt>
      <trkpt lat="44.95863" lon="0.6145">
        <ele>101.56</ele>
        <time>2020-01-11T16:01:43Z</time>
      </trkpt>
      <trkpt lat="44.95859" lon="0.61448">
        <ele>103</ele>
        <time>2020-01-11T16:01:47Z</time>
      </trkpt>
      <trkpt lat="44.95855" lon="0.61444">
        <ele>103</ele>
        <time>2020-01-11T16:01:51Z</time>
      </trkpt>
      <trkpt lat="44.95846" lon="0.61438">
        <ele>103.48</ele>
        <time>2020-01-11T16:01:56Z</time>
      </trkpt>
      <trkpt lat="44.95807" lon="0.61439">
        <ele>104.44</ele>
        <time>2020-01-11T16:02:24Z</time>
      </trkpt>
      <trkpt lat="44.95773" lon="0.61456">
        <ele>104.92</ele>
        <time>2020-01-11T16:02:51Z</time>
      </trkpt>
      <trkpt lat="44.95735" lon="0.61468">
        <ele>104.92</ele>
        <time>2020-01-11T16:03:13Z</time>
      </trkpt>
      <trkpt lat="44.95704" lon="0.61464">
        <ele>104.44</ele>
        <time>2020-01-11T16:03:38Z</time>
      </trkpt>
      <trkpt lat="44.957" lon="0.61472">
        <ele>103.48</ele>
        <time>2020-01-11T16:03:42Z</time>
      </trkpt>
      <trkpt lat="44.95696" lon="0.61499">
        <ele>101.56</ele>
        <time>2020-01-11T16:04:02Z</time>
      </trkpt>
      <trkpt lat="44.95703" lon="0.61519">
        <ele>100.11</ele>
        <time>2020-01-11T16:04:23Z</time>
      </trkpt>
      <trkpt lat="44.95705" lon="0.61526">
        <ele>100.11</ele>
        <time>2020-01-11T16:04:44Z</time>
      </trkpt>
      <trkpt lat="44.95703" lon="0.61528">
        <ele>100.11</ele>
        <time>2020-01-11T16:05:05Z</time>
      </trkpt>
    </trkseg>
  </trk>
</gpx>